sensor_id;sensor_type;location;lat;lon;timestamp;P1;durP1;ratioP1;P2;durP2;ratioP2
23614;SDS011;11985;49.404;7.734;2024-03-23T00:58:13;25.63;;;13.30;;
23614;SDS011;11985;49.404;7.734;2024-03-23T01:03:15;21.10;;;12.02;;
23614;SDS011;11985;49.404;7.734;2024-03-23T01:08:17;26.75;;;13.68;;
23614;SDS011;11985;49.404;7.734;2024-03-23T01:13:19;24.23;;;13.05;;
23614;SDS011;11985;49.404;7.734;2024-03-23T01:18:22;25.73;;;14.53;;
23614;SDS011;11985;49.404;7.734;2024-03-23T01:23:26;24.80;;;12.77;;
23614;SDS011;11985;49.404;7.734;2024-03-23T01:28:29;24.73;;;14.38;;
23614;SDS011;11985;49.404;7.734;2024-03-23T01:33:31;27.65;;;14.30;;
23614;SDS011;11985;49.404;7.734;2024-03-23T01:38:32;29.67;;;15.40;;
23614;SDS011;11985;49.404;7.734;2024-03-23T01:43:35;33.45;;;15.65;;
23614;SDS011;11985;49.404;7.734;2024-03-23T01:48:37;29.63;;;15.23;;
23614;SDS011;11985;49.404;7.734;2024-03-23T01:53:38;28.48;;;15.38;;
23614;SDS011;11985;49.404;7.734;2024-03-23T01:58:41;24.60;;;16.00;;
23614;SDS011;11985;49.404;7.734;2024-03-23T02:03:43;32.58;;;16.88;;
23614;SDS011;11985;49.404;7.734;2024-03-23T02:08:44;27.75;;;14.90;;
23614;SDS011;11985;49.404;7.734;2024-03-23T02:13:47;28.42;;;15.60;;
23614;SDS011;11985;49.404;7.734;2024-03-23T02:18:49;28.98;;;15.52;;
23614;SDS011;11985;49.404;7.734;2024-03-23T02:23:52;33.53;;;16.73;;
23614;SDS011;11985;49.404;7.734;2024-03-23T02:28:53;27.48;;;15.55;;
23614;SDS011;11985;49.404;7.734;2024-03-23T02:33:55;31.33;;;16.63;;
23614;SDS011;11985;49.404;7.734;2024-03-23T02:38:58;32.22;;;16.73;;
23614;SDS011;11985;49.404;7.734;2024-03-23T02:43:59;32.85;;;17.52;;
23614;SDS011;11985;49.404;7.734;2024-03-23T02:49:01;33.10;;;17.50;;
23614;SDS011;11985;49.404;7.734;2024-03-23T02:54:05;33.00;;;17.10;;
23614;SDS011;11985;49.404;7.734;2024-03-23T02:59:06;29.10;;;13.82;;
23614;SDS011;11985;49.404;7.734;2024-03-23T03:04:08;34.17;;;18.15;;
23614;SDS011;11985;49.404;7.734;2024-03-23T03:09:11;36.05;;;18.85;;
23614;SDS011;11985;49.404;7.734;2024-03-23T03:14:12;40.90;;;18.23;;
23614;SDS011;11985;49.404;7.734;2024-03-23T03:19:14;31.85;;;17.83;;
23614;SDS011;11985;49.404;7.734;2024-03-23T03:24:18;32.70;;;16.02;;
23614;SDS011;11985;49.404;7.734;2024-03-23T03:29:19;31.35;;;16.05;;
23614;SDS011;11985;49.404;7.734;2024-03-23T03:34:21;26.52;;;14.15;;
23614;SDS011;11985;49.404;7.734;2024-03-23T03:39:24;29.13;;;13.80;;
23614;SDS011;11985;49.404;7.734;2024-03-23T03:44:26;24.35;;;13.48;;
23614;SDS011;11985;49.404;7.734;2024-03-23T03:49:27;29.02;;;12.50;;
23614;SDS011;11985;49.404;7.734;2024-03-23T03:54:30;24.08;;;11.25;;
23614;SDS011;11985;49.404;7.734;2024-03-23T03:59:32;20.27;;;10.77;;
23614;SDS011;11985;49.404;7.734;2024-03-23T04:04:34;15.43;;;7.63;;
23614;SDS011;11985;49.404;7.734;2024-03-23T04:09:37;12.63;;;7.68;;
23614;SDS011;11985;49.404;7.734;2024-03-23T04:14:39;9.48;;;5.45;;
23614;SDS011;11985;49.404;7.734;2024-03-23T04:19:40;9.85;;;5.55;;
23614;SDS011;11985;49.404;7.734;2024-03-23T04:24:43;8.52;;;4.75;;
23614;SDS011;11985;49.404;7.734;2024-03-23T04:29:46;7.90;;;5.03;;
23614;SDS011;11985;49.404;7.734;2024-03-23T04:34:49;9.63;;;5.05;;
23614;SDS011;11985;49.404;7.734;2024-03-23T04:39:51;8.10;;;4.38;;
23614;SDS011;11985;49.404;7.734;2024-03-23T04:44:53;8.00;;;4.18;;
23614;SDS011;11985;49.404;7.734;2024-03-23T04:49:55;6.65;;;4.20;;
23614;SDS011;11985;49.404;7.734;2024-03-23T04:54:57;5.25;;;2.92;;
23614;SDS011;11985;49.404;7.734;2024-03-23T04:59:59;6.47;;;2.35;;
23614;SDS011;11985;49.404;7.734;2024-03-23T05:05:01;3.40;;;1.85;;
23614;SDS011;11985;49.404;7.734;2024-03-23T05:10:04;6.25;;;1.48;;
23614;SDS011;11985;49.404;7.734;2024-03-23T05:15:10;2.42;;;1.30;;
23614;SDS011;11985;49.404;7.734;2024-03-23T05:20:12;2.15;;;1.23;;
23614;SDS011;11985;49.404;7.734;2024-03-23T05:25:15;1.33;;;0.98;;
23614;SDS011;11985;49.404;7.734;2024-03-23T05:30:17;1.67;;;1.00;;
23614;SDS011;11985;49.404;7.734;2024-03-23T05:35:18;1.90;;;1.20;;
23614;SDS011;11985;49.404;7.734;2024-03-23T05:40:21;1.23;;;0.88;;
23614;SDS011;11985;49.404;7.734;2024-03-23T05:45:23;1.45;;;1.00;;
23614;SDS011;11985;49.404;7.734;2024-03-23T05:50:24;0.93;;;0.70;;
23614;SDS011;11985;49.404;7.734;2024-03-23T05:55:27;0.50;;;0.50;;
23614;SDS011;11985;49.404;7.734;2024-03-23T06:00:29;0.60;;;0.50;;
23614;SDS011;11985;49.404;7.734;2024-03-23T06:05:30;0.55;;;0.50;;
23614;SDS011;11985;49.404;7.734;2024-03-23T06:10:33;0.77;;;0.55;;
23614;SDS011;11985;49.404;7.734;2024-03-23T06:15:35;0.60;;;0.60;;
23614;SDS011;11985;49.404;7.734;2024-03-23T06:20:37;0.70;;;0.60;;
23614;SDS011;11985;49.404;7.734;2024-03-23T06:25:40;0.50;;;0.50;;
23614;SDS011;11985;49.404;7.734;2024-03-23T06:30:42;0.98;;;0.70;;
23614;SDS011;11985;49.404;7.734;2024-03-23T06:35:49;0.70;;;0.70;;
23614;SDS011;11985;49.404;7.734;2024-03-23T06:40:53;1.85;;;0.80;;
23614;SDS011;11985;49.404;7.734;2024-03-23T06:45:55;2.38;;;1.00;;
23614;SDS011;11985;49.404;7.734;2024-03-23T06:50:57;2.20;;;1.17;;
23614;SDS011;11985;49.404;7.734;2024-03-23T06:56:00;4.68;;;1.15;;
23614;SDS011;11985;49.404;7.734;2024-03-23T07:01:02;10.35;;;1.90;;
23614;SDS011;11985;49.404;7.734;2024-03-23T07:06:04;3.88;;;1.50;;
23614;SDS011;11985;49.404;7.734;2024-03-23T07:11:11;6.85;;;2.17;;
23614;SDS011;11985;49.404;7.734;2024-03-23T07:16:13;8.73;;;2.38;;
23614;SDS011;11985;49.404;7.734;2024-03-23T07:21:15;6.53;;;2.40;;
23614;SDS011;11985;49.404;7.734;2024-03-23T07:26:18;10.90;;;2.70;;
23614;SDS011;11985;49.404;7.734;2024-03-23T07:31:20;10.95;;;2.65;;
23614;SDS011;11985;49.404;7.734;2024-03-23T07:36:22;12.00;;;2.80;;
23614;SDS011;11985;49.404;7.734;2024-03-23T07:41:26;8.10;;;2.30;;
23614;SDS011;11985;49.404;7.734;2024-03-23T07:46:28;13.02;;;2.85;;
23614;SDS011;11985;49.404;7.734;2024-03-23T07:51:29;6.10;;;2.60;;
23614;SDS011;11985;49.404;7.734;2024-03-23T07:56:33;12.38;;;3.00;;
23614;SDS011;11985;49.404;7.734;2024-03-23T08:01:34;10.32;;;2.80;;
23614;SDS011;11985;49.404;7.734;2024-03-23T08:06:40;12.73;;;3.45;;
23614;SDS011;11985;49.404;7.734;2024-03-23T08:11:43;14.45;;;3.60;;
23614;SDS011;11985;49.404;7.734;2024-03-23T08:16:46;12.40;;;2.88;;
23614;SDS011;11985;49.404;7.734;2024-03-23T08:21:51;15.38;;;3.55;;
23614;SDS011;11985;49.404;7.734;2024-03-23T08:26:55;13.23;;;3.85;;
23614;SDS011;11985;49.404;7.734;2024-03-23T08:31:57;12.30;;;3.53;;
23614;SDS011;11985;49.404;7.734;2024-03-23T08:36:58;13.70;;;3.75;;
23614;SDS011;11985;49.404;7.734;2024-03-23T08:42:01;10.43;;;3.67;;
23614;SDS011;11985;49.404;7.734;2024-03-23T08:47:03;12.15;;;4.28;;
23614;SDS011;11985;49.404;7.734;2024-03-23T08:52:05;16.23;;;4.20;;
23614;SDS011;11985;49.404;7.734;2024-03-23T08:57:09;15.93;;;4.18;;
23614;SDS011;11985;49.404;7.734;2024-03-23T09:02:11;15.68;;;4.80;;
23614;SDS011;11985;49.404;7.734;2024-03-23T09:07:12;12.00;;;4.07;;
23614;SDS011;11985;49.404;7.734;2024-03-23T09:12:15;10.43;;;3.92;;
23614;SDS011;11985;49.404;7.734;2024-03-23T09:17:17;11.35;;;4.15;;
23614;SDS011;11985;49.404;7.734;2024-03-23T09:22:19;11.15;;;3.00;;
23614;SDS011;11985;49.404;7.734;2024-03-23T09:27:22;10.25;;;3.58;;
23614;SDS011;11985;49.404;7.734;2024-03-23T09:32:23;14.68;;;3.30;;
23614;SDS011;11985;49.404;7.734;2024-03-23T09:37:25;14.63;;;2.90;;
23614;SDS011;11985;49.404;7.734;2024-03-23T09:42:28;8.10;;;2.88;;
23614;SDS011;11985;49.404;7.734;2024-03-23T09:47:30;13.25;;;2.70;;
23614;SDS011;11985;49.404;7.734;2024-03-23T09:52:31;13.63;;;3.08;;
23614;SDS011;11985;49.404;7.734;2024-03-23T09:57:34;13.45;;;3.33;;
23614;SDS011;11985;49.404;7.734;2024-03-23T10:02:36;6.60;;;2.10;;
23614;SDS011;11985;49.404;7.734;2024-03-23T10:07:38;6.50;;;2.25;;
23614;SDS011;11985;49.404;7.734;2024-03-23T10:12:45;10.57;;;2.45;;
23614;SDS011;11985;49.404;7.734;2024-03-23T10:17:47;8.20;;;3.45;;
23614;SDS011;11985;49.404;7.734;2024-03-23T10:22:49;11.70;;;3.40;;
23614;SDS011;11985;49.404;7.734;2024-03-23T10:27:59;12.13;;;3.33;;
23614;SDS011;11985;49.404;7.734;2024-03-23T10:33:10;8.77;;;2.22;;
23614;SDS011;11985;49.404;7.734;2024-03-23T10:38:13;14.90;;;2.78;;
23614;SDS011;11985;49.404;7.734;2024-03-23T10:43:16;9.18;;;2.00;;
23614;SDS011;11985;49.404;7.734;2024-03-23T10:48:18;7.30;;;2.70;;
23614;SDS011;11985;49.404;7.734;2024-03-23T10:53:19;9.95;;;2.70;;
23614;SDS011;11985;49.404;7.734;2024-03-23T10:58:28;12.30;;;2.80;;
23614;SDS011;11985;49.404;7.734;2024-03-23T11:03:31;5.30;;;1.98;;
23614;SDS011;11985;49.404;7.734;2024-03-23T11:08:35;3.08;;;1.10;;
23614;SDS011;11985;49.404;7.734;2024-03-23T11:13:38;4.95;;;1.45;;
23614;SDS011;11985;49.404;7.734;2024-03-23T11:18:40;6.00;;;1.60;;
23614;SDS011;11985;49.404;7.734;2024-03-23T11:23:42;11.15;;;1.67;;
23614;SDS011;11985;49.404;7.734;2024-03-23T11:28:45;6.53;;;1.50;;
23614;SDS011;11985;49.404;7.734;2024-03-23T11:33:46;2.97;;;1.42;;
23614;SDS011;11985;49.404;7.734;2024-03-23T11:38:48;7.50;;;1.50;;
23614;SDS011;11985;49.404;7.734;2024-03-23T11:43:51;6.43;;;1.77;;
23614;SDS011;11985;49.404;7.734;2024-03-23T11:48:52;6.60;;;2.00;;
23614;SDS011;11985;49.404;7.734;2024-03-23T11:53:54;5.70;;;1.75;;
23614;SDS011;11985;49.404;7.734;2024-03-23T11:58:57;5.70;;;1.73;;
23614;SDS011;11985;49.404;7.734;2024-03-23T12:03:58;6.72;;;1.90;;
23614;SDS011;11985;49.404;7.734;2024-03-23T12:09:05;5.40;;;2.10;;
23614;SDS011;11985;49.404;7.734;2024-03-23T12:14:08;4.13;;;1.30;;
23614;SDS011;11985;49.404;7.734;2024-03-23T12:19:10;2.88;;;1.40;;
23614;SDS011;11985;49.404;7.734;2024-03-23T12:24:11;2.95;;;1.40;;
23614;SDS011;11985;49.404;7.734;2024-03-23T12:29:14;3.78;;;1.50;;
23614;SDS011;11985;49.404;7.734;2024-03-23T12:34:16;4.22;;;2.20;;
23614;SDS011;11985;49.404;7.734;2024-03-23T12:39:17;3.05;;;1.45;;
23614;SDS011;11985;49.404;7.734;2024-03-23T12:44:21;3.80;;;2.00;;
23614;SDS011;11985;49.404;7.734;2024-03-23T12:49:22;5.53;;;1.15;;
23614;SDS011;11985;49.404;7.734;2024-03-23T12:54:24;3.40;;;1.50;;
23614;SDS011;11985;49.404;7.734;2024-03-23T12:59:29;5.93;;;2.03;;
23614;SDS011;11985;49.404;7.734;2024-03-23T13:04:30;4.40;;;1.50;;
23614;SDS011;11985;49.404;7.734;2024-03-23T13:09:32;3.28;;;1.30;;
23614;SDS011;11985;49.404;7.734;2024-03-23T13:14:35;3.50;;;1.25;;
23614;SDS011;11985;49.404;7.734;2024-03-23T13:19:36;3.55;;;1.13;;
23614;SDS011;11985;49.404;7.734;2024-03-23T13:24:38;2.75;;;1.00;;
23614;SDS011;11985;49.404;7.734;2024-03-23T13:29:41;3.53;;;0.88;;
23614;SDS011;11985;49.404;7.734;2024-03-23T13:34:43;5.88;;;3.35;;
23614;SDS011;11985;49.404;7.734;2024-03-23T13:39:44;4.78;;;1.48;;
23614;SDS011;11985;49.404;7.734;2024-03-23T13:44:47;2.55;;;1.00;;
23614;SDS011;11985;49.404;7.734;2024-03-23T13:49:50;2.80;;;1.30;;
23614;SDS011;11985;49.404;7.734;2024-03-23T13:54:51;4.20;;;1.13;;
23614;SDS011;11985;49.404;7.734;2024-03-23T13:59:54;6.30;;;1.90;;
23614;SDS011;11985;49.404;7.734;2024-03-23T14:04:56;12.38;;;3.58;;
23614;SDS011;11985;49.404;7.734;2024-03-23T14:10:02;7.47;;;2.90;;
23614;SDS011;11985;49.404;7.734;2024-03-23T14:15:07;1.48;;;0.57;;
23614;SDS011;11985;49.404;7.734;2024-03-23T14:20:10;11.80;;;5.70;;
23614;SDS011;11985;49.404;7.734;2024-03-23T14:25:13;4.78;;;0.98;;
23614;SDS011;11985;49.404;7.734;2024-03-23T14:30:16;4.03;;;1.10;;
23614;SDS011;11985;49.404;7.734;2024-03-23T14:35:18;5.43;;;2.20;;
23614;SDS011;11985;49.404;7.734;2024-03-23T14:40:19;6.45;;;2.08;;
23614;SDS011;11985;49.404;7.734;2024-03-23T14:45:22;4.75;;;1.52;;
23614;SDS011;11985;49.404;7.734;2024-03-23T14:50:24;8.45;;;3.42;;
23614;SDS011;11985;49.404;7.734;2024-03-23T14:55:26;9.93;;;3.10;;
23614;SDS011;11985;49.404;7.734;2024-03-23T15:00:30;8.45;;;3.63;;
23614;SDS011;11985;49.404;7.734;2024-03-23T15:05:31;3.03;;;1.38;;
23614;SDS011;11985;49.404;7.734;2024-03-23T15:10:33;0.52;;;0.43;;
23614;SDS011;11985;49.404;7.734;2024-03-23T15:15:39;1.00;;;0.43;;
23614;SDS011;11985;49.404;7.734;2024-03-23T15:20:41;0.80;;;0.43;;
23614;SDS011;11985;49.404;7.734;2024-03-23T15:25:43;0.30;;;0.30;;
23614;SDS011;11985;49.404;7.734;2024-03-23T15:30:51;3.67;;;0.85;;
23614;SDS011;11985;49.404;7.734;2024-03-23T15:35:53;2.80;;;0.70;;
23614;SDS011;11985;49.404;7.734;2024-03-23T15:40:55;1.00;;;0.65;;
23614;SDS011;11985;49.404;7.734;2024-03-23T15:45:58;1.38;;;0.60;;
23614;SDS011;11985;49.404;7.734;2024-03-23T15:51:01;1.77;;;0.50;;
23614;SDS011;11985;49.404;7.734;2024-03-23T15:56:04;6.75;;;0.73;;
23614;SDS011;11985;49.404;7.734;2024-03-23T16:01:08;2.85;;;1.33;;
23614;SDS011;11985;49.404;7.734;2024-03-23T16:06:10;3.28;;;1.50;;
23614;SDS011;11985;49.404;7.734;2024-03-23T16:11:12;2.05;;;0.50;;
23614;SDS011;11985;49.404;7.734;2024-03-23T16:16:15;2.08;;;0.73;;
23614;SDS011;11985;49.404;7.734;2024-03-23T16:21:16;3.33;;;0.70;;
23614;SDS011;11985;49.404;7.734;2024-03-23T16:26:18;4.07;;;1.33;;
23614;SDS011;11985;49.404;7.734;2024-03-23T16:31:21;2.53;;;1.38;;
23614;SDS011;11985;49.404;7.734;2024-03-23T16:36:23;2.92;;;1.10;;
23614;SDS011;11985;49.404;7.734;2024-03-23T16:41:25;3.15;;;1.55;;
23614;SDS011;11985;49.404;7.734;2024-03-23T16:46:28;3.47;;;0.80;;
23614;SDS011;11985;49.404;7.734;2024-03-23T16:51:31;2.72;;;1.10;;
23614;SDS011;11985;49.404;7.734;2024-03-23T16:56:32;3.67;;;1.20;;
23614;SDS011;11985;49.404;7.734;2024-03-23T17:01:35;6.15;;;0.93;;
23614;SDS011;11985;49.404;7.734;2024-03-23T17:06:37;4.85;;;0.90;;
23614;SDS011;11985;49.404;7.734;2024-03-23T17:11:39;1.85;;;0.70;;
23614;SDS011;11985;49.404;7.734;2024-03-23T17:16:44;3.63;;;1.00;;
23614;SDS011;11985;49.404;7.734;2024-03-23T17:21:46;11.73;;;3.67;;
23614;SDS011;11985;49.404;7.734;2024-03-23T17:26:48;5.78;;;1.30;;
23614;SDS011;11985;49.404;7.734;2024-03-23T17:31:51;1.95;;;1.25;;
23614;SDS011;11985;49.404;7.734;2024-03-23T17:36:52;2.55;;;1.17;;
23614;SDS011;11985;49.404;7.734;2024-03-23T17:41:54;4.13;;;1.70;;
23614;SDS011;11985;49.404;7.734;2024-03-23T17:46:57;6.32;;;1.60;;
23614;SDS011;11985;49.404;7.734;2024-03-23T17:51:58;5.63;;;1.50;;
23614;SDS011;11985;49.404;7.734;2024-03-23T17:57:02;18.98;;;6.45;;
23614;SDS011;11985;49.404;7.734;2024-03-23T18:02:05;3.60;;;1.70;;
23614;SDS011;11985;49.404;7.734;2024-03-23T18:07:07;7.85;;;1.70;;
23614;SDS011;11985;49.404;7.734;2024-03-23T18:12:08;7.00;;;3.13;;
23614;SDS011;11985;49.404;7.734;2024-03-23T18:17:11;11.32;;;3.42;;
23614;SDS011;11985;49.404;7.734;2024-03-23T18:22:14;2.42;;;1.30;;
23614;SDS011;11985;49.404;7.734;2024-03-23T18:27:16;3.75;;;1.52;;
23614;SDS011;11985;49.404;7.734;2024-03-23T18:32:19;4.00;;;1.35;;
23614;SDS011;11985;49.404;7.734;2024-03-23T18:37:20;5.47;;;2.00;;
23614;SDS011;11985;49.404;7.734;2024-03-23T18:42:22;4.55;;;1.58;;
23614;SDS011;11985;49.404;7.734;2024-03-23T18:47:25;4.68;;;2.03;;
23614;SDS011;11985;49.404;7.734;2024-03-23T18:52:26;3.28;;;1.50;;
23614;SDS011;11985;49.404;7.734;2024-03-23T18:57:28;4.35;;;1.50;;
23614;SDS011;11985;49.404;7.734;2024-03-23T19:02:31;5.18;;;1.30;;
23614;SDS011;11985;49.404;7.734;2024-03-23T19:07:32;2.53;;;1.42;;
23614;SDS011;11985;49.404;7.734;2024-03-23T19:12:34;4.57;;;1.60;;
23614;SDS011;11985;49.404;7.734;2024-03-23T19:17:37;5.10;;;2.00;;
23614;SDS011;11985;49.404;7.734;2024-03-23T19:22:38;5.15;;;2.47;;
23614;SDS011;11985;49.404;7.734;2024-03-23T19:27:40;4.35;;;2.25;;
23614;SDS011;11985;49.404;7.734;2024-03-23T19:32:43;3.38;;;2.72;;
23614;SDS011;11985;49.404;7.734;2024-03-23T19:37:48;6.40;;;2.50;;
23614;SDS011;11985;49.404;7.734;2024-03-23T19:42:49;11.45;;;3.00;;
23614;SDS011;11985;49.404;7.734;2024-03-23T19:47:52;8.07;;;2.60;;
23614;SDS011;11985;49.404;7.734;2024-03-23T19:52:54;6.85;;;2.25;;
23614;SDS011;11985;49.404;7.734;2024-03-23T19:57:55;9.18;;;2.40;;
23614;SDS011;11985;49.404;7.734;2024-03-23T20:02:59;7.53;;;2.78;;
23614;SDS011;11985;49.404;7.734;2024-03-23T20:08:06;6.07;;;2.28;;
23614;SDS011;11985;49.404;7.734;2024-03-23T20:13:07;5.28;;;2.00;;
23614;SDS011;11985;49.404;7.734;2024-03-23T20:18:10;5.13;;;2.10;;
23614;SDS011;11985;49.404;7.734;2024-03-23T20:23:12;8.55;;;2.03;;
23614;SDS011;11985;49.404;7.734;2024-03-23T20:28:14;7.80;;;2.03;;
23614;SDS011;11985;49.404;7.734;2024-03-23T20:33:16;5.03;;;1.90;;
23614;SDS011;11985;49.404;7.734;2024-03-23T20:38:18;3.67;;;1.60;;
23614;SDS011;11985;49.404;7.734;2024-03-23T20:43:21;6.70;;;1.50;;
23614;SDS011;11985;49.404;7.734;2024-03-23T20:48:25;4.40;;;2.15;;
23614;SDS011;11985;49.404;7.734;2024-03-23T20:53:27;3.95;;;2.30;;
23614;SDS011;11985;49.404;7.734;2024-03-23T20:58:29;3.88;;;1.80;;
23614;SDS011;11985;49.404;7.734;2024-03-23T21:03:33;3.65;;;1.70;;
23614;SDS011;11985;49.404;7.734;2024-03-23T21:08:34;10.63;;;2.20;;
23614;SDS011;11985;49.404;7.734;2024-03-23T21:13:36;4.78;;;1.85;;
23614;SDS011;11985;49.404;7.734;2024-03-23T21:18:39;6.55;;;2.42;;
23614;SDS011;11985;49.404;7.734;2024-03-23T21:23:41;4.68;;;2.10;;
23614;SDS011;11985;49.404;7.734;2024-03-23T21:28:42;7.30;;;1.92;;
23614;SDS011;11985;49.404;7.734;2024-03-23T21:33:45;5.68;;;2.22;;
23614;SDS011;11985;49.404;7.734;2024-03-23T21:38:47;4.03;;;2.22;;
23614;SDS011;11985;49.404;7.734;2024-03-23T21:43:49;6.43;;;2.30;;
23614;SDS011;11985;49.404;7.734;2024-03-23T21:48:52;6.50;;;1.98;;
23614;SDS011;11985;49.404;7.734;2024-03-23T21:53:53;4.80;;;2.40;;
23614;SDS011;11985;49.404;7.734;2024-03-23T21:58:57;5.28;;;2.50;;
23614;SDS011;11985;49.404;7.734;2024-03-23T22:04:01;4.60;;;2.30;;
23614;SDS011;11985;49.404;7.734;2024-03-23T22:09:02;6.43;;;2.63;;
23614;SDS011;11985;49.404;7.734;2024-03-23T22:14:04;4.05;;;2.63;;
23614;SDS011;11985;49.404;7.734;2024-03-23T22:19:08;4.82;;;3.08;;
23614;SDS011;11985;49.404;7.734;2024-03-23T22:24:09;6.60;;;3.50;;
23614;SDS011;11985;49.404;7.734;2024-03-23T22:29:11;13.43;;;3.40;;
23614;SDS011;11985;49.404;7.734;2024-03-23T22:34:14;6.63;;;4.15;;
23614;SDS011;11985;49.404;7.734;2024-03-23T22:39:15;7.63;;;4.00;;
23614;SDS011;11985;49.404;7.734;2024-03-23T22:44:17;7.72;;;4.38;;
23614;SDS011;11985;49.404;7.734;2024-03-23T22:49:20;11.27;;;4.65;;
23614;SDS011;11985;49.404;7.734;2024-03-23T22:54:21;8.73;;;4.30;;
23614;SDS011;11985;49.404;7.734;2024-03-23T22:59:23;9.10;;;4.80;;
23614;SDS011;11985;49.404;7.734;2024-03-23T23:04:26;7.50;;;4.10;;
23614;SDS011;11985;49.404;7.734;2024-03-23T23:09:28;8.30;;;3.92;;
23614;SDS011;11985;49.404;7.734;2024-03-23T23:14:30;11.43;;;4.38;;
23614;SDS011;11985;49.404;7.734;2024-03-23T23:19:33;8.48;;;3.80;;
23614;SDS011;11985;49.404;7.734;2024-03-23T23:24:36;5.85;;;3.33;;
23614;SDS011;11985;49.404;7.734;2024-03-23T23:29:41;5.72;;;3.45;;
23614;SDS011;11985;49.404;7.734;2024-03-23T23:34:44;6.13;;;3.17;;
23614;SDS011;11985;49.404;7.734;2024-03-23T23:39:46;6.40;;;3.05;;
23614;SDS011;11985;49.404;7.734;2024-03-23T23:44:49;4.78;;;3.30;;
23614;SDS011;11985;49.404;7.734;2024-03-23T23:49:52;7.38;;;3.55;;
23614;SDS011;11985;49.404;7.734;2024-03-23T23:54:53;6.70;;;3.45;;
23614;SDS011;11985;49.404;7.734;2024-03-23T23:59:55;9.02;;;3.60;;
